createdAt,value
2018-12-14T00:00:57.965Z,978.69
2018-12-14T00:01:57.873Z,978.69
2018-12-14T00:02:57.787Z,978.69
2018-12-14T00:03:57.714Z,978.70
2018-12-14T00:04:57.608Z,978.68
2018-12-14T00:05:57.522Z,978.72
2018-12-14T00:06:57.469Z,978.74
2018-12-14T00:07:57.340Z,978.69
2018-12-14T00:08:57.255Z,978.70
2018-12-14T00:09:57.165Z,978.76
2018-12-14T00:10:57.078Z,978.74
2018-12-14T00:11:56.989Z,978.74
2018-12-14T00:12:56.899Z,978.76
2018-12-14T00:13:56.815Z,978.75
2018-12-14T00:14:56.722Z,978.73
2018-12-14T00:15:56.632Z,978.75
2018-12-14T00:16:56.545Z,978.77
2018-12-14T00:17:56.455Z,978.73
2018-12-14T00:18:56.378Z,978.75
2018-12-14T00:19:56.278Z,978.77
2018-12-14T00:20:56.190Z,978.76
2018-12-14T00:21:56.104Z,978.76
2018-12-14T00:22:56.013Z,978.76
2018-12-14T00:23:55.924Z,978.78
2018-12-14T00:24:55.836Z,978.74
2018-12-14T00:25:55.748Z,978.77
2018-12-14T00:26:55.660Z,978.73
2018-12-14T00:27:55.569Z,978.74
2018-12-14T00:28:55.486Z,978.79
2018-12-14T00:29:55.393Z,978.78
2018-12-14T00:30:55.304Z,978.79
2018-12-14T00:31:55.215Z,978.76
2018-12-14T00:32:55.131Z,978.74
2018-12-14T00:33:55.038Z,978.79
2018-12-14T00:34:54.953Z,978.77
2018-12-14T00:35:54.860Z,978.76
2018-12-14T00:36:54.772Z,978.70
2018-12-14T00:37:54.693Z,978.70
2018-12-14T00:38:54.598Z,978.67
2018-12-14T00:39:54.509Z,978.72
2018-12-14T00:40:54.418Z,978.72
2018-12-14T00:41:54.330Z,978.75
2018-12-14T00:42:54.242Z,978.70
2018-12-14T00:43:54.152Z,978.74
2018-12-14T00:44:54.064Z,978.77
2018-12-14T00:45:53.980Z,978.80
2018-12-14T00:46:53.886Z,978.78
2018-12-14T00:47:53.797Z,978.78
2018-12-14T00:48:53.708Z,978.76
2018-12-14T00:49:53.622Z,978.76
2018-12-14T00:50:53.533Z,978.78
2018-12-14T00:51:53.442Z,978.75
2018-12-14T00:52:53.357Z,978.80
2018-12-14T00:53:53.266Z,978.83
2018-12-14T00:54:53.180Z,978.79
2018-12-14T00:55:53.090Z,978.81
2018-12-14T00:56:53.002Z,978.78
2018-12-14T00:57:52.911Z,978.76
2018-12-14T00:58:52.826Z,978.78
2018-12-14T00:59:52.739Z,978.79
2018-12-14T01:00:52.646Z,978.78
2018-12-14T01:01:52.559Z,978.80
2018-12-14T01:02:52.469Z,978.79
2018-12-14T01:03:52.383Z,978.79
2018-12-14T01:04:52.294Z,978.77
2018-12-14T01:05:52.202Z,978.78
2018-12-14T01:06:52.116Z,978.80
2018-12-14T01:07:52.025Z,978.82
2018-12-14T01:08:51.941Z,978.78
2018-12-14T01:09:51.848Z,978.82
2018-12-14T01:10:51.760Z,978.81
2018-12-14T01:11:57.993Z,978.77
2018-12-14T01:12:51.583Z,978.79
2018-12-14T01:13:51.495Z,978.77
2018-12-14T01:14:51.406Z,978.78
2018-12-14T01:15:51.318Z,978.77
2018-12-14T01:16:51.228Z,978.81
2018-12-14T01:17:51.141Z,978.78
2018-12-14T01:18:51.052Z,978.83
2018-12-14T01:19:51.022Z,978.81
2018-12-14T01:20:50.874Z,978.82
2018-12-14T01:21:50.786Z,978.86
2018-12-14T01:22:50.698Z,978.86
2018-12-14T01:23:50.609Z,978.87
2018-12-14T01:24:50.520Z,978.88
2018-12-14T01:25:50.433Z,978.86
2018-12-14T01:26:50.345Z,978.88
2018-12-14T01:27:50.255Z,978.85
2018-12-14T01:28:50.168Z,978.91
2018-12-14T01:29:50.081Z,978.87
2018-12-14T01:30:49.990Z,978.85
2018-12-14T01:31:49.901Z,978.86
2018-12-14T01:32:49.813Z,978.85
2018-12-14T01:33:49.724Z,978.86
2018-12-14T01:34:49.636Z,978.90
2018-12-14T01:35:49.548Z,978.92
2018-12-14T01:36:49.457Z,978.93
2018-12-14T01:37:49.373Z,978.93
2018-12-14T01:38:49.282Z,978.89
2018-12-14T01:39:49.192Z,978.89
2018-12-14T01:40:49.110Z,978.89
2018-12-14T01:41:49.016Z,978.90
2018-12-14T01:42:48.928Z,978.93
2018-12-14T01:43:48.838Z,978.94
2018-12-14T01:44:48.750Z,978.91
2018-12-14T01:45:48.662Z,978.91
2018-12-14T01:46:48.572Z,978.94
2018-12-14T01:47:48.484Z,978.94
2018-12-14T01:48:48.396Z,978.94
2018-12-14T01:49:48.308Z,978.92
2018-12-14T01:50:48.219Z,978.97
2018-12-14T01:51:48.130Z,978.94
2018-12-14T01:52:48.042Z,978.94
2018-12-14T01:53:47.952Z,978.93
2018-12-14T01:54:47.873Z,978.92
2018-12-14T01:55:47.778Z,978.91
2018-12-14T01:56:47.688Z,978.98
2018-12-14T01:57:47.598Z,978.93
2018-12-14T01:58:47.510Z,978.93
2018-12-14T01:59:47.423Z,978.93
2018-12-14T02:00:47.332Z,978.92
2018-12-14T02:01:47.244Z,978.92
2018-12-14T02:02:47.155Z,978.94
2018-12-14T02:03:47.069Z,978.93
2018-12-14T02:04:46.981Z,978.93
2018-12-14T02:05:46.893Z,978.94
2018-12-14T02:06:46.805Z,978.95
2018-12-14T02:07:46.714Z,978.95
2018-12-14T02:08:46.627Z,978.97
2018-12-14T02:09:46.537Z,978.94
2018-12-14T02:10:46.451Z,978.93
2018-12-14T02:11:46.374Z,978.96
2018-12-14T02:12:46.274Z,978.92
2018-12-14T02:13:46.182Z,978.91
2018-12-14T02:14:46.094Z,978.92
2018-12-14T02:15:46.006Z,978.96
2018-12-14T02:16:45.917Z,978.96
2018-12-14T02:17:45.829Z,978.96
2018-12-14T02:18:45.741Z,978.96
2018-12-14T02:19:45.651Z,978.95
2018-12-14T02:20:45.563Z,978.93
2018-12-14T02:21:45.476Z,978.96
2018-12-14T02:22:45.387Z,978.93
2018-12-14T02:23:45.297Z,978.90
2018-12-14T02:24:45.208Z,978.87
2018-12-14T02:25:45.120Z,978.82
2018-12-14T02:26:45.032Z,978.83
2018-12-14T02:27:44.943Z,978.79
2018-12-14T02:28:44.855Z,978.79
2018-12-14T02:29:44.771Z,978.76
2018-12-14T02:30:44.678Z,978.74
2018-12-14T02:31:44.590Z,978.70
2018-12-14T02:32:44.499Z,978.72
2018-12-14T02:33:44.413Z,978.75
2018-12-14T02:34:44.335Z,978.76
2018-12-14T02:35:44.235Z,978.76
2018-12-14T02:36:44.146Z,978.75
2018-12-14T02:37:44.060Z,978.73
2018-12-14T02:38:43.972Z,978.70
2018-12-14T02:39:43.884Z,978.69
2018-12-14T02:40:43.814Z,978.68
2018-12-14T02:41:43.718Z,978.66
2018-12-14T02:42:43.615Z,978.68
2018-12-14T02:43:43.528Z,978.70
2018-12-14T02:44:43.438Z,978.69
2018-12-14T02:45:43.354Z,978.65
2018-12-14T02:46:43.260Z,978.63
2018-12-14T02:47:43.171Z,978.63
2018-12-14T02:48:43.101Z,978.66
2018-12-14T02:49:42.995Z,978.67
2018-12-14T02:50:42.910Z,978.61
2018-12-14T02:51:42.820Z,978.62
2018-12-14T02:52:42.730Z,978.67
2018-12-14T02:53:42.650Z,978.63
2018-12-14T02:54:42.556Z,978.61
2018-12-14T02:55:42.464Z,978.64
2018-12-14T02:56:42.377Z,978.66
2018-12-14T02:57:42.286Z,978.63
2018-12-14T02:58:42.199Z,978.65
2018-12-14T02:59:42.110Z,978.69
2018-12-14T03:00:42.021Z,978.65
2018-12-14T03:01:41.935Z,978.71
2018-12-14T03:02:41.848Z,978.70
2018-12-14T03:03:41.756Z,978.66
2018-12-14T03:04:41.666Z,978.68
2018-12-14T03:05:41.579Z,978.68
2018-12-14T03:06:41.490Z,978.71
2018-12-14T03:07:41.400Z,978.70
2018-12-14T03:08:41.313Z,978.75
2018-12-14T03:09:41.226Z,978.74
2018-12-14T03:10:41.135Z,978.73
2018-12-14T03:11:41.046Z,978.77
2018-12-14T03:12:40.959Z,978.76
2018-12-14T03:13:40.869Z,978.74
2018-12-14T03:14:40.782Z,978.75
2018-12-14T03:15:40.691Z,978.71
2018-12-14T03:16:40.603Z,978.72
2018-12-14T03:17:40.520Z,978.75
2018-12-14T03:18:40.426Z,978.73
2018-12-14T03:19:40.339Z,978.71
2018-12-14T03:20:40.249Z,978.68
2018-12-14T03:21:40.161Z,978.72
2018-12-14T03:22:40.075Z,978.69
2018-12-14T03:23:39.984Z,978.69
2018-12-14T03:24:39.897Z,978.73
2018-12-14T03:25:39.807Z,978.72
2018-12-14T03:26:39.719Z,978.72
2018-12-14T03:27:39.630Z,978.71
2018-12-14T03:28:39.545Z,978.72
2018-12-14T03:29:39.452Z,978.69
2018-12-14T03:30:39.371Z,978.73
2018-12-14T03:31:39.275Z,978.75
2018-12-14T03:32:39.197Z,978.73
2018-12-14T03:33:39.098Z,978.74
2018-12-14T03:34:39.010Z,978.78
2018-12-14T03:35:38.921Z,978.74
2018-12-14T03:36:38.833Z,978.75
2018-12-14T03:37:38.746Z,978.73
2018-12-14T03:38:38.655Z,978.77
2018-12-14T03:39:38.570Z,978.80
2018-12-14T03:40:38.478Z,978.80
2018-12-14T03:41:38.392Z,978.78
2018-12-14T03:42:38.307Z,978.80
2018-12-14T03:43:38.215Z,978.81
2018-12-14T03:44:38.125Z,978.82
2018-12-14T03:45:38.034Z,978.81
2018-12-14T03:46:37.955Z,978.81
2018-12-14T03:47:37.860Z,978.82
2018-12-14T03:48:37.768Z,978.84
2018-12-14T03:49:37.682Z,978.86
2018-12-14T03:50:37.600Z,978.89
2018-12-14T03:51:37.509Z,978.91
2018-12-14T03:52:37.415Z,978.89
2018-12-14T03:53:37.334Z,978.92
2018-12-14T03:54:37.239Z,978.93
2018-12-14T03:55:37.150Z,978.88
2018-12-14T03:56:37.058Z,978.89
2018-12-14T03:57:36.970Z,978.87
2018-12-14T03:58:36.889Z,978.90
2018-12-14T03:59:36.796Z,978.89
2018-12-14T04:00:36.705Z,978.93
2018-12-14T04:01:36.618Z,978.92
2018-12-14T04:02:36.527Z,978.95
2018-12-14T04:03:36.440Z,978.91
2018-12-14T04:04:36.354Z,978.90
2018-12-14T04:05:36.261Z,978.91
2018-12-14T04:06:36.180Z,978.95
2018-12-14T04:07:36.086Z,978.94
2018-12-14T04:08:35.995Z,978.94
2018-12-14T04:09:35.910Z,978.95
2018-12-14T04:10:35.821Z,978.97
2018-12-14T04:11:35.729Z,978.97
2018-12-14T04:12:41.526Z,978.96
2018-12-14T04:13:35.555Z,979.00
2018-12-14T04:14:35.465Z,979.01
2018-12-14T04:15:35.378Z,979.02
2018-12-14T04:16:35.290Z,979.02
2018-12-14T04:17:35.199Z,979.03
2018-12-14T04:18:35.114Z,979.07
2018-12-14T04:19:35.020Z,979.04
2018-12-14T04:20:34.934Z,979.08
2018-12-14T04:21:34.846Z,979.07
2018-12-14T04:22:34.755Z,979.08
2018-12-14T04:23:34.668Z,979.08
2018-12-14T04:24:34.577Z,979.09
2018-12-14T04:25:34.491Z,979.12
2018-12-14T04:26:34.403Z,979.11
2018-12-14T04:27:34.313Z,979.12
2018-12-14T04:28:34.222Z,979.09
2018-12-14T04:29:34.140Z,979.13
2018-12-14T04:30:34.047Z,979.10
2018-12-14T04:31:33.956Z,979.10
2018-12-14T04:32:33.868Z,979.09
2018-12-14T04:33:33.778Z,979.07
2018-12-14T04:34:33.691Z,979.08
2018-12-14T04:35:33.601Z,979.10
2018-12-14T04:36:33.513Z,979.09
2018-12-14T04:37:33.422Z,979.10
2018-12-14T04:38:33.348Z,979.09
2018-12-14T04:39:33.250Z,979.13
2018-12-14T04:40:33.170Z,979.13
2018-12-14T04:41:33.071Z,979.11
2018-12-14T04:42:32.981Z,979.11
2018-12-14T04:43:32.891Z,979.12
2018-12-14T04:44:32.805Z,979.12
2018-12-14T04:45:32.715Z,979.17
2018-12-14T04:46:32.626Z,979.17
2018-12-14T04:47:32.536Z,979.20
2018-12-14T04:48:32.448Z,979.22
2018-12-14T04:49:32.363Z,979.17
2018-12-14T04:50:32.280Z,979.20
2018-12-14T04:51:32.181Z,979.15
2018-12-14T04:52:32.093Z,979.19
2018-12-14T04:53:32.004Z,979.15
2018-12-14T04:54:31.915Z,979.14
2018-12-14T04:55:31.828Z,979.13
2018-12-14T04:56:31.739Z,979.16
2018-12-14T04:57:31.653Z,979.18
2018-12-14T04:58:31.561Z,979.20
2018-12-14T04:59:31.473Z,979.21
2018-12-14T05:00:31.385Z,979.19
2018-12-14T05:01:31.294Z,979.22
2018-12-14T05:02:31.205Z,979.20
2018-12-14T05:03:31.116Z,979.25
2018-12-14T05:04:31.071Z,979.29
2018-12-14T05:05:30.941Z,979.25
2018-12-14T05:06:31.628Z,979.29
2018-12-14T05:07:30.763Z,979.28
2018-12-14T05:08:30.675Z,979.31
2018-12-14T05:09:30.584Z,979.31
2018-12-14T05:10:30.495Z,979.35
2018-12-14T05:11:30.405Z,979.34
2018-12-14T05:12:30.320Z,979.33
2018-12-14T05:13:30.229Z,979.30
2018-12-14T05:14:30.141Z,979.35
2018-12-14T05:15:30.052Z,979.37
2018-12-14T05:16:29.964Z,979.37
2018-12-14T05:17:29.876Z,979.40
2018-12-14T05:18:29.787Z,979.38
2018-12-14T05:19:29.704Z,979.39
2018-12-14T05:20:29.623Z,979.41
2018-12-14T05:21:29.520Z,979.41
2018-12-14T05:22:29.432Z,979.42
2018-12-14T05:23:29.345Z,979.41
2018-12-14T05:24:29.261Z,979.45
2018-12-14T05:25:29.167Z,979.46
2018-12-14T05:26:29.117Z,979.46
2018-12-14T05:27:28.988Z,979.45
2018-12-14T05:28:28.898Z,979.42
2018-12-14T05:29:28.810Z,979.46
2018-12-14T05:30:28.724Z,979.49
2018-12-14T05:31:28.638Z,979.50
2018-12-14T05:32:28.544Z,979.48
2018-12-14T05:33:28.456Z,979.52
2018-12-14T05:34:28.383Z,979.49
2018-12-14T05:35:28.278Z,979.51
2018-12-14T05:36:28.193Z,979.54
2018-12-14T05:37:28.102Z,979.51
2018-12-14T05:38:28.013Z,979.49
2018-12-14T05:39:27.923Z,979.51
2018-12-14T05:40:27.835Z,979.53
2018-12-14T05:41:27.746Z,979.52
2018-12-14T05:42:27.659Z,979.54
2018-12-14T05:43:27.570Z,979.56
2018-12-14T05:44:27.481Z,979.56
2018-12-14T05:45:27.396Z,979.57
2018-12-14T05:46:27.304Z,979.57
2018-12-14T05:47:27.222Z,979.59
2018-12-14T05:48:27.127Z,979.58
2018-12-14T05:49:27.047Z,979.60
2018-12-14T05:50:26.950Z,979.57
2018-12-14T05:51:26.859Z,979.54
2018-12-14T05:52:26.772Z,979.55
2018-12-14T05:53:26.681Z,979.56
2018-12-14T05:54:26.596Z,979.55
2018-12-14T05:55:26.504Z,979.56
2018-12-14T05:56:26.416Z,979.59
2018-12-14T05:57:26.333Z,979.58
2018-12-14T05:58:26.241Z,979.58
2018-12-14T05:59:26.151Z,979.60
2018-12-14T06:00:26.060Z,979.60
2018-12-14T06:01:25.975Z,979.56
2018-12-14T06:02:25.891Z,979.62
2018-12-14T06:03:25.797Z,979.62
2018-12-14T06:04:25.713Z,979.68
2018-12-14T06:05:25.619Z,979.69
2018-12-14T06:06:25.531Z,979.69
2018-12-14T06:07:25.443Z,979.71
2018-12-14T06:08:25.357Z,979.66
2018-12-14T06:09:25.263Z,979.70
2018-12-14T06:10:25.177Z,979.71
2018-12-14T06:11:25.086Z,979.69
2018-12-14T06:12:24.996Z,979.71
2018-12-14T06:13:24.909Z,979.77
2018-12-14T06:14:24.821Z,979.74
2018-12-14T06:15:24.736Z,979.74
2018-12-14T06:16:24.644Z,979.74
2018-12-14T06:17:24.560Z,979.73
2018-12-14T06:18:24.466Z,979.75
2018-12-14T06:19:24.393Z,979.76
2018-12-14T06:20:24.297Z,979.71
2018-12-14T06:21:25.490Z,979.75
2018-12-14T06:22:24.111Z,979.76
2018-12-14T06:23:24.023Z,979.75
2018-12-14T06:24:24.076Z,979.78
2018-12-14T06:25:23.846Z,979.77
2018-12-14T06:26:23.756Z,979.79
2018-12-14T06:27:23.669Z,979.80
2018-12-14T06:28:23.578Z,979.82
2018-12-14T06:29:23.491Z,979.81
2018-12-14T06:30:23.403Z,979.82
2018-12-14T06:31:23.326Z,979.87
2018-12-14T06:32:23.228Z,979.84
2018-12-14T06:33:23.140Z,979.86
2018-12-14T06:34:23.046Z,979.80
2018-12-14T06:35:22.960Z,979.81
2018-12-14T06:36:22.869Z,979.83
2018-12-14T06:37:22.782Z,979.84
2018-12-14T06:38:22.698Z,979.86
2018-12-14T06:39:22.605Z,979.87
2018-12-14T06:40:22.520Z,979.87
2018-12-14T06:41:22.431Z,979.88
2018-12-14T06:42:22.337Z,979.85
2018-12-14T06:43:22.253Z,979.90
2018-12-14T06:44:22.162Z,979.89
2018-12-14T06:45:22.074Z,979.91
2018-12-14T06:46:21.986Z,979.92
2018-12-14T06:47:21.947Z,979.88
2018-12-14T06:48:21.816Z,979.88
2018-12-14T06:49:21.718Z,979.88
2018-12-14T06:50:21.664Z,979.90
2018-12-14T06:51:21.538Z,979.93
2018-12-14T06:52:21.487Z,979.94
2018-12-14T06:53:21.361Z,979.92
2018-12-14T06:54:21.274Z,979.92
2018-12-14T06:55:21.183Z,979.90
2018-12-14T06:56:21.097Z,979.93
2018-12-14T06:57:21.067Z,979.93
2018-12-14T06:58:20.948Z,979.92
2018-12-14T06:59:20.877Z,979.92
2018-12-14T07:00:20.790Z,979.97
2018-12-14T07:01:20.653Z,979.96
2018-12-14T07:02:20.569Z,979.95
2018-12-14T07:03:20.475Z,979.97
2018-12-14T07:04:20.390Z,979.97
2018-12-14T07:05:20.299Z,979.98
2018-12-14T07:06:20.218Z,979.93
2018-12-14T07:07:20.122Z,979.94
2018-12-14T07:08:20.697Z,979.96
2018-12-14T07:09:19.950Z,979.93
2018-12-14T07:10:19.860Z,979.92
2018-12-14T07:11:19.773Z,979.89
2018-12-14T07:12:19.677Z,979.94
2018-12-14T07:13:21.982Z,979.94
2018-12-14T07:14:19.502Z,979.91
2018-12-14T07:15:19.416Z,979.88
2018-12-14T07:16:19.326Z,979.92
2018-12-14T07:17:19.234Z,979.99
2018-12-14T07:18:19.146Z,979.96
2018-12-14T07:19:19.061Z,979.95
2018-12-14T07:20:18.987Z,979.98
2018-12-14T07:21:18.890Z,979.98
2018-12-14T07:22:18.861Z,979.98
2018-12-14T07:23:18.704Z,979.98
2018-12-14T07:24:19.251Z,980.02
2018-12-14T07:25:18.604Z,980.05
2018-12-14T07:26:18.541Z,980.07
2018-12-14T07:27:18.422Z,980.08
2018-12-14T07:28:18.324Z,980.05
2018-12-14T07:29:19.199Z,980.09
2018-12-14T07:30:18.151Z,980.13
2018-12-14T07:31:18.064Z,980.16
2018-12-14T07:32:17.975Z,980.18
2018-12-14T07:33:17.888Z,980.19
2018-12-14T07:34:17.801Z,980.18
2018-12-14T07:35:17.664Z,980.20
2018-12-14T07:36:17.623Z,980.21
2018-12-14T07:37:17.536Z,980.22
2018-12-14T07:38:17.448Z,980.25
2018-12-14T07:39:17.361Z,980.29
2018-12-14T07:40:17.264Z,980.27
2018-12-14T07:41:17.702Z,980.26
2018-12-14T07:42:17.093Z,980.24
2018-12-14T07:43:17.011Z,980.29
2018-12-14T07:44:16.940Z,980.31
2018-12-14T07:45:16.823Z,980.30
2018-12-14T07:46:16.734Z,980.30
2018-12-14T07:47:16.654Z,980.31
2018-12-14T07:48:17.196Z,980.31
2018-12-14T07:49:16.469Z,980.33
2018-12-14T07:50:16.392Z,980.35
2018-12-14T07:51:16.297Z,980.31
2018-12-14T07:52:16.214Z,980.33
2018-12-14T07:53:16.127Z,980.35
2018-12-14T07:54:16.039Z,980.34
2018-12-14T07:55:17.716Z,980.32
2018-12-14T07:56:15.857Z,980.34
2018-12-14T07:57:15.771Z,980.35
2018-12-14T07:58:15.670Z,980.35
2018-12-14T07:59:15.581Z,980.41
2018-12-14T08:00:15.514Z,980.42
2018-12-14T08:01:15.410Z,980.42
2018-12-14T08:02:15.325Z,980.40
2018-12-14T08:03:15.234Z,980.43
2018-12-14T08:04:15.141Z,980.42
2018-12-14T08:05:15.059Z,980.41
2018-12-14T08:06:14.970Z,980.40
2018-12-14T08:07:15.701Z,980.44
2018-12-14T08:08:14.791Z,980.41
2018-12-14T08:09:14.710Z,980.46
2018-12-14T08:10:14.609Z,980.47
2018-12-14T08:11:14.536Z,980.49
2018-12-14T08:12:14.441Z,980.50
2018-12-14T08:13:14.311Z,980.53
2018-12-14T08:14:14.268Z,980.53
2018-12-14T08:15:14.167Z,980.53
2018-12-14T08:16:14.085Z,980.55
2018-12-14T08:17:14.719Z,980.57
2018-12-14T08:18:13.911Z,980.56
2018-12-14T08:19:13.826Z,980.56
2018-12-14T08:20:17.114Z,980.55
2018-12-14T08:21:13.639Z,980.55
2018-12-14T08:22:15.208Z,980.56
2018-12-14T08:23:13.460Z,980.56
2018-12-14T08:24:13.379Z,980.62
2018-12-14T08:25:14.203Z,980.61
2018-12-14T08:26:14.715Z,980.56
2018-12-14T08:27:13.111Z,980.58
2018-12-14T08:28:13.028Z,980.62
2018-12-14T08:29:12.917Z,980.63
2018-12-14T08:30:13.709Z,980.63
2018-12-14T08:31:12.768Z,980.63
2018-12-14T08:32:12.670Z,980.64
2018-12-14T08:33:12.582Z,980.64
2018-12-14T08:34:12.459Z,980.63
2018-12-14T08:35:12.417Z,980.63
2018-12-14T08:36:12.259Z,980.67
2018-12-14T08:37:12.232Z,980.67
2018-12-14T08:38:12.149Z,980.66
2018-12-14T08:39:12.055Z,980.68
2018-12-14T08:40:11.968Z,980.69
2018-12-14T08:41:11.879Z,980.72
2018-12-14T08:42:11.799Z,980.70
2018-12-14T08:43:11.708Z,980.72
2018-12-14T08:44:11.616Z,980.70
2018-12-14T08:45:12.221Z,980.70
2018-12-14T08:46:11.437Z,980.71
2018-12-14T08:47:11.348Z,980.76
2018-12-14T08:48:11.266Z,980.78
2018-12-14T08:49:11.713Z,980.78
2018-12-14T08:50:11.095Z,980.78
2018-12-14T08:51:12.752Z,980.80
2018-12-14T08:52:10.910Z,980.83
2018-12-14T08:53:10.825Z,980.84
2018-12-14T08:54:10.728Z,980.88
2018-12-14T08:55:10.643Z,980.86
2018-12-14T08:56:10.622Z,980.91
2018-12-14T08:57:11.213Z,980.93
2018-12-14T08:58:10.389Z,980.94
2018-12-14T08:59:10.292Z,980.96
2018-12-14T09:00:10.213Z,980.99
2018-12-14T09:01:10.119Z,980.98
2018-12-14T09:02:10.716Z,981.00
2018-12-14T09:03:09.943Z,981.00
2018-12-14T09:04:10.194Z,981.01
2018-12-14T09:05:09.760Z,980.98
2018-12-14T09:06:09.677Z,981.02
2018-12-14T09:07:12.214Z,981.03
2018-12-14T09:08:10.217Z,981.01
2018-12-14T09:09:09.411Z,981.02
2018-12-14T09:10:10.217Z,981.05
2018-12-14T09:11:09.236Z,981.00
2018-12-14T09:12:09.129Z,981.03
2018-12-14T09:13:09.065Z,981.07
2018-12-14T09:14:08.963Z,981.01
2018-12-14T09:15:08.884Z,981.04
2018-12-14T09:16:08.791Z,981.03
2018-12-14T09:17:08.705Z,981.06
2018-12-14T09:18:08.621Z,981.07
2018-12-14T09:19:08.531Z,981.10
2018-12-14T09:20:08.449Z,981.11
2018-12-14T09:21:10.226Z,981.10
2018-12-14T09:22:08.264Z,981.08
2018-12-14T09:23:08.155Z,981.05
2018-12-14T09:24:08.105Z,981.09
2018-12-14T09:25:07.999Z,981.08
2018-12-14T09:26:08.727Z,981.05
2018-12-14T09:27:07.830Z,981.05
2018-12-14T09:28:07.744Z,981.08
2018-12-14T09:29:08.222Z,981.06
2018-12-14T09:30:07.563Z,981.10
2018-12-14T09:31:07.475Z,981.12
2018-12-14T09:32:07.384Z,981.13
2018-12-14T09:33:07.305Z,981.11
2018-12-14T09:34:07.215Z,981.12
2018-12-14T09:35:07.124Z,981.16
2018-12-14T09:36:07.039Z,981.18
2018-12-14T09:37:06.951Z,981.17
2018-12-14T09:38:06.864Z,981.21
2018-12-14T09:39:06.714Z,981.16
2018-12-14T09:40:06.626Z,981.19
2018-12-14T09:41:06.598Z,981.18
2018-12-14T09:42:06.517Z,981.18
2018-12-14T09:43:06.416Z,981.21
2018-12-14T09:44:06.334Z,981.22
2018-12-14T09:45:06.246Z,981.22
2018-12-14T09:46:06.158Z,981.19
2018-12-14T09:47:06.720Z,981.17
2018-12-14T09:48:05.927Z,981.17
2018-12-14T09:49:05.889Z,981.12
2018-12-14T09:50:05.822Z,981.12
2018-12-14T09:51:12.116Z,981.12
2018-12-14T09:52:05.641Z,981.16
2018-12-14T09:53:05.550Z,981.12
2018-12-14T09:54:07.218Z,981.15
2018-12-14T09:55:05.360Z,981.16
2018-12-14T09:56:06.223Z,981.17
2018-12-14T09:57:05.188Z,981.16
2018-12-14T09:58:05.105Z,981.18
2018-12-14T09:59:05.013Z,981.19
2018-12-14T10:00:04.928Z,981.17
2018-12-14T10:01:04.842Z,981.16
2018-12-14T10:02:04.757Z,981.21
2018-12-14T10:03:04.662Z,981.20
2018-12-14T10:04:04.566Z,981.14
2018-12-14T10:05:04.490Z,981.13
2018-12-14T10:06:04.345Z,981.16
2018-12-14T10:07:04.315Z,981.17
2018-12-14T10:08:04.228Z,981.14
2018-12-14T10:09:04.728Z,981.16
2018-12-14T10:10:04.053Z,981.18
2018-12-14T10:11:03.963Z,981.14
2018-12-14T10:12:03.879Z,981.14
2018-12-14T10:13:03.795Z,981.10
2018-12-14T10:14:04.239Z,981.13
2018-12-14T10:15:03.623Z,981.15
2018-12-14T10:16:03.686Z,981.13
2018-12-14T10:17:04.228Z,981.12
2018-12-14T10:18:03.354Z,981.15
2018-12-14T10:19:04.237Z,981.13
2018-12-14T10:20:03.180Z,981.15
2018-12-14T10:21:03.729Z,981.12
2018-12-14T10:22:02.982Z,981.17
2018-12-14T10:23:03.743Z,981.13
2018-12-14T10:24:02.834Z,981.15
2018-12-14T10:25:02.746Z,981.13
2018-12-14T10:26:02.649Z,981.12
2018-12-14T10:27:02.578Z,981.14
2018-12-14T10:28:03.270Z,981.16
2018-12-14T10:29:02.418Z,981.16
2018-12-14T10:30:02.308Z,981.12
2018-12-14T10:31:02.717Z,981.13
2018-12-14T10:32:02.136Z,981.17
2018-12-14T10:33:02.047Z,981.13
2018-12-14T10:34:01.954Z,981.12
2018-12-14T10:35:01.878Z,981.13
2018-12-14T10:36:01.740Z,981.12
2018-12-14T10:37:01.685Z,981.14
2018-12-14T10:38:01.607Z,981.12
2018-12-14T10:39:01.527Z,981.15
2018-12-14T10:40:01.437Z,981.10
2018-12-14T10:41:01.343Z,981.08
2018-12-14T10:42:01.218Z,981.14
2018-12-14T10:43:01.173Z,981.13
2018-12-14T10:44:07.281Z,981.10
2018-12-14T10:45:00.993Z,981.10
2018-12-14T10:46:01.919Z,981.10
2018-12-14T10:47:00.820Z,981.09
2018-12-14T10:48:00.737Z,981.04
2018-12-14T10:49:01.228Z,981.07
2018-12-14T10:50:03.231Z,981.08
2018-12-14T10:51:00.475Z,981.11
2018-12-14T10:52:00.386Z,981.09
2018-12-14T10:53:07.940Z,981.12
2018-12-14T10:55:04.686Z,981.15
2018-12-14T10:56:04.496Z,981.11
2018-12-14T10:58:08.897Z,981.12
2018-12-14T10:59:08.712Z,981.15
2018-12-14T11:01:14.414Z,981.17
2018-12-14T11:02:13.555Z,981.18
2018-12-14T11:04:06.205Z,981.17
2018-12-14T11:05:06.019Z,981.14
2018-12-14T11:07:10.405Z,981.19
2018-12-14T11:08:10.223Z,981.23
2018-12-14T11:10:14.513Z,981.22
2018-12-14T11:11:15.081Z,981.23
2018-12-14T11:13:18.694Z,981.26
2018-12-14T11:14:18.605Z,981.24
2018-12-14T11:16:23.920Z,981.19
2018-12-14T11:17:23.452Z,981.19
2018-12-14T11:19:27.081Z,981.19
2018-12-14T11:20:26.991Z,981.20
2018-12-14T11:22:31.444Z,981.17
2018-12-14T11:23:31.184Z,981.17
2018-12-14T11:25:35.474Z,981.22
2018-12-14T11:26:35.378Z,981.16
2018-12-14T11:27:35.295Z,981.18
2018-12-14T11:28:35.211Z,981.15
2018-12-14T11:29:35.075Z,981.13
2018-12-14T11:30:35.106Z,981.15
2018-12-14T11:31:34.886Z,981.15
2018-12-14T11:32:35.528Z,981.12
2018-12-14T11:33:34.782Z,981.16
2018-12-14T11:34:35.521Z,981.15
2018-12-14T11:35:34.597Z,981.16
2018-12-14T11:36:35.031Z,981.12
2018-12-14T11:37:34.422Z,981.17
2018-12-14T11:38:34.337Z,981.14
2018-12-14T11:39:34.196Z,981.18
2018-12-14T11:40:34.159Z,981.16
2018-12-14T11:41:34.072Z,981.17
2018-12-14T11:42:34.000Z,981.16
2018-12-14T11:43:33.897Z,981.16
2018-12-14T11:44:33.811Z,981.17
2018-12-14T11:45:33.725Z,981.18
2018-12-14T11:46:33.654Z,981.18
2018-12-14T11:47:34.538Z,981.14
2018-12-14T11:48:33.461Z,981.12
2018-12-14T11:49:34.037Z,981.15
2018-12-14T11:50:33.284Z,981.10
2018-12-14T11:51:33.201Z,981.12
2018-12-14T11:52:33.107Z,981.09
2018-12-14T11:53:33.030Z,981.07
2018-12-14T11:54:32.984Z,981.08
2018-12-14T11:55:32.863Z,981.11
2018-12-14T11:56:32.753Z,981.08
2018-12-14T11:57:32.671Z,981.09
2018-12-14T11:58:32.578Z,981.11
2018-12-14T11:59:32.498Z,981.09
2018-12-14T12:00:32.411Z,981.12
2018-12-14T12:01:32.324Z,981.12
2018-12-14T12:02:32.236Z,981.10
2018-12-14T12:03:33.036Z,981.07
2018-12-14T12:04:32.062Z,981.08
2018-12-14T12:05:31.981Z,981.08
2018-12-14T12:06:31.890Z,981.05
2018-12-14T12:07:31.797Z,981.05
2018-12-14T12:08:31.714Z,981.04
2018-12-14T12:09:31.622Z,981.04
2018-12-14T12:10:31.539Z,981.03
2018-12-14T12:11:31.450Z,980.98
2018-12-14T12:12:31.364Z,981.04
2018-12-14T12:13:31.270Z,981.04
2018-12-14T12:14:31.186Z,981.02
2018-12-14T12:15:31.098Z,981.01
2018-12-14T12:16:31.544Z,980.99
2018-12-14T12:17:30.924Z,980.99
2018-12-14T12:18:30.817Z,980.98
2018-12-14T12:19:30.747Z,980.96
2018-12-14T12:20:30.661Z,980.94
2018-12-14T12:21:30.575Z,980.94
2018-12-14T12:22:30.486Z,980.91
2018-12-14T12:23:31.034Z,980.96
2018-12-14T12:24:30.313Z,980.94
2018-12-14T12:25:30.222Z,980.99
2018-12-14T12:26:30.136Z,980.95
2018-12-14T12:27:30.049Z,980.95
2018-12-14T12:28:29.958Z,980.97
2018-12-14T12:29:29.845Z,980.94
2018-12-14T12:30:29.786Z,980.95
2018-12-14T12:31:29.700Z,980.97
2018-12-14T12:32:30.538Z,980.93
2018-12-14T12:33:30.043Z,980.93
2018-12-14T12:34:30.048Z,980.95
2018-12-14T12:35:29.352Z,981.01
2018-12-14T12:36:29.258Z,980.97
2018-12-14T12:37:29.172Z,980.97
2018-12-14T12:38:30.044Z,980.99
2018-12-14T12:39:28.998Z,980.99